Time;durP1;ratioP1;P1;durP2;ratioP2;P2;SDS_P1;SDS_P2;PMS_P1;PMS_P2;Temp;Humidity;BMP_temperature;BMP_pressure;BME280_temperature;BME280_humidity;BME280_pressure;Samples;Min_cycle;Max_cycle;Signal;HPM_P1;HPM_P2
2023/01/13 00:01:05;;;;;;;4.00;2.70;;;;;;;;;;772723;181;816783;-62
2023/01/13 00:03:31;;;;;;;5.73;2.80;;;;;;;;;;775592;182;874805;-70
2023/01/13 00:05:57;;;;;;;4.57;2.63;;;;;;;;;;773535;181;917895;-62
2023/01/13 00:08:23;;;;;;;7.33;3.47;;;;;;;;;;773533;180;919122;-69
2023/01/13 00:10:49;;;;;;;5.93;3.15;;;;;;;;;;775498;180;919174;-63
2023/01/13 00:13:14;;;;;;;6.60;2.40;;;;;;;;;;777161;181;917274;-62
2023/01/13 00:15:40;;;;;;;6.00;3.30;;;;;;;;;;767880;181;916368;-69
2023/01/13 00:18:06;;;;;;;4.40;2.63;;;;;;;;;;763503;183;919186;-62
2023/01/13 00:20:32;;;;;;;5.97;2.70;;;;;;;;;;769635;181;918983;-62
2023/01/13 00:22:59;;;;;;;4.67;3.43;;;;;;;;;;755778;181;920192;-62
2023/01/13 00:25:24;;;;;;;4.90;2.50;;;;;;;;;;761330;182;888579;-62
2023/01/13 00:27:49;;;;;;;5.77;2.77;;;;;;;;;;774401;181;920243;-68
2023/01/13 00:30:16;;;;;;;4.43;2.40;;;;;;;;;;771496;182;921649;-68
2023/01/13 00:32:41;;;;;;;7.23;3.60;;;;;;;;;;774038;182;818494;-61
2023/01/13 00:35:07;;;;;;;5.57;2.60;;;;;;;;;;775873;180;942280;-68
2023/01/13 00:37:34;;;;;;;5.37;2.87;;;;;;;;;;769253;180;918672;-62
2023/01/13 00:40:00;;;;;;;4.20;2.53;;;;;;;;;;770625;182;915136;-62
2023/01/13 00:44:57;;;;;;;5.47;3.10;;;;;;;;;;774031;179;922182;-68
2023/01/13 00:47:23;;;;;;;4.20;2.67;;;;;;;;;;753873;186;918757;-62
2023/01/13 00:49:49;;;;;;;6.87;2.90;;;;;;;;;;762454;181;817201;-62
2023/01/13 00:52:15;;;;;;;4.70;2.83;;;;;;;;;;777750;182;816987;-68
2023/01/13 00:54:41;;;;;;;4.93;3.13;;;;;;;;;;760132;180;919569;-67
2023/01/13 00:57:07;;;;;;;5.20;3.10;;;;;;;;;;764850;181;920199;-69
2023/01/13 00:59:32;;;;;;;8.10;4.20;;;;;;;;;;772791;181;872980;-68
2023/01/13 01:01:58;;;;;;;5.10;2.60;;;;;;;;;;778362;182;817981;-61
2023/01/13 01:04:24;;;;;;;7.20;3.00;;;;;;;;;;772166;179;858445;-66
2023/01/13 01:06:50;;;;;;;4.53;3.20;;;;;;;;;;775228;181;919190;-62
2023/01/13 01:09:16;;;;;;;5.03;2.80;;;;;;;;;;779423;179;922341;-62
2023/01/13 01:11:42;;;;;;;6.37;3.57;;;;;;;;;;774059;181;918924;-68
2023/01/13 01:14:07;;;;;;;4.43;3.20;;;;;;;;;;756760;184;919822;-61
2023/01/13 01:16:33;;;;;;;11.83;3.40;;;;;;;;;;776553;181;818080;-67
2023/01/13 01:18:59;;;;;;;8.70;3.27;;;;;;;;;;757789;180;918882;-67
2023/01/13 01:21:25;;;;;;;8.50;4.00;;;;;;;;;;755722;182;919347;-66
2023/01/13 01:23:51;;;;;;;11.30;3.70;;;;;;;;;;755189;186;918733;-67
2023/01/13 01:26:17;;;;;;;6.93;3.10;;;;;;;;;;769658;181;917779;-67
2023/01/13 01:28:43;;;;;;;6.00;3.00;;;;;;;;;;775447;181;917861;-62
2023/01/13 01:31:12;;;;;;;10.33;3.90;;;;;;;;;;769806;181;921412;-60
2023/01/13 01:33:39;;;;;;;8.57;3.67;;;;;;;;;;760048;186;816221;-62
2023/01/13 01:36:03;;;;;;;5.60;3.43;;;;;;;;;;764130;181;919194;-63
2023/01/13 01:38:29;;;;;;;5.70;3.67;;;;;;;;;;773018;180;919350;-61
2023/01/13 01:40:55;;;;;;;6.43;3.30;;;;;;;;;;778012;181;917546;-67
2023/01/13 01:45:53;;;;;;;4.90;2.97;;;;;;;;;;773531;180;918904;-61
2023/01/13 01:48:19;;;;;;;7.23;3.47;;;;;;;;;;772073;182;925230;-61
2023/01/13 01:50:44;;;;;;;7.43;3.50;;;;;;;;;;775712;182;919645;-68
2023/01/13 01:53:11;;;;;;;5.20;3.00;;;;;;;;;;773332;182;918737;-61
2023/01/13 01:55:37;;;;;;;5.30;3.17;;;;;;;;;;766827;182;919411;-61
2023/01/13 01:58:06;;;;;;;5.47;3.37;;;;;;;;;;768841;182;920831;-67
2023/01/13 02:00:32;;;;;;;5.07;3.00;;;;;;;;;;774835;181;919159;-62
2023/01/13 02:02:58;;;;;;;4.93;2.90;;;;;;;;;;773368;182;918813;-61
2023/01/13 02:05:24;;;;;;;9.17;3.07;;;;;;;;;;772434;179;915380;-67
2023/01/13 02:07:50;;;;;;;10.43;3.20;;;;;;;;;;778926;182;918135;-61
2023/01/13 02:10:16;;;;;;;6.40;4.00;;;;;;;;;;772848;180;936360;-61
2023/01/13 02:12:41;;;;;;;6.57;3.10;;;;;;;;;;771162;181;918873;-62
2023/01/13 02:15:09;;;;;;;6.47;2.70;;;;;;;;;;777290;182;818596;-61
2023/01/13 02:17:38;;;;;;;6.03;2.87;;;;;;;;;;776305;181;1021150;-69
2023/01/13 02:20:10;;;;;;;6.50;3.13;;;;;;;;;;775636;180;918333;-67
2023/01/13 02:22:48;;;;;;;5.93;2.90;;;;;;;;;;775177;180;870186;-68
2023/01/13 02:25:16;;;;;;;5.87;2.50;;;;;;;;;;772750;181;919362;-67
2023/01/13 02:27:46;;;;;;;4.07;2.57;;;;;;;;;;779240;180;917931;-62
2023/01/13 02:32:49;;;;;;;3.70;2.23;;;;;;;;;;772868;180;917722;-60
2023/01/13 02:35:30;;;;;;;5.27;2.83;;;;;;;;;;772539;182;919252;-61
2023/01/13 02:37:56;;;;;;;5.03;3.17;;;;;;;;;;771840;182;919315;-61
2023/01/13 02:40:25;;;;;;;5.43;2.40;;;;;;;;;;777210;182;919061;-60
2023/01/13 02:45:41;;;;;;;4.23;2.37;;;;;;;;;;777934;181;920218;-60
2023/01/13 02:48:07;;;;;;;5.67;2.53;;;;;;;;;;768602;181;919587;-61
2023/01/13 02:50:34;;;;;;;5.77;3.07;;;;;;;;;;771058;182;918138;-61
2023/01/13 02:53:03;;;;;;;5.20;2.80;;;;;;;;;;772956;182;919243;-61
2023/01/13 02:55:29;;;;;;;4.40;2.90;;;;;;;;;;765980;182;919533;-61
2023/01/13 02:57:55;;;;;;;4.53;2.70;;;;;;;;;;766042;181;918851;-67
2023/01/13 03:00:21;;;;;;;9.63;3.03;;;;;;;;;;771737;181;918813;-61
2023/01/13 03:02:47;;;;;;;8.47;2.97;;;;;;;;;;779119;180;813709;-61
2023/01/13 03:05:13;;;;;;;8.30;3.10;;;;;;;;;;773510;180;919971;-61
2023/01/13 03:07:40;;;;;;;8.38;3.33;;;;;;;;;;771032;182;912738;-67
2023/01/13 03:10:06;;;;;;;5.23;2.67;;;;;;;;;;774391;179;913893;-61
2023/01/13 03:12:33;;;;;;;5.97;3.20;;;;;;;;;;763169;182;1019735;-62
2023/01/13 03:15:16;;;;;;;5.43;3.20;;;;;;;;;;762093;182;919478;-61
2023/01/13 03:17:41;;;;;;;7.87;3.03;;;;;;;;;;767475;182;919156;-61
2023/01/13 03:20:15;;;;;;;7.93;3.10;;;;;;;;;;769249;183;919198;-61
2023/01/13 03:22:42;;;;;;;3.80;2.10;;;;;;;;;;773608;180;916546;-61
2023/01/13 03:25:09;;;;;;;7.53;3.03;;;;;;;;;;760072;182;919286;-67
2023/01/13 03:27:39;;;;;;;4.47;2.70;;;;;;;;;;765711;179;919228;-68
2023/01/13 03:30:06;;;;;;;5.53;3.07;;;;;;;;;;775450;180;918773;-61
2023/01/13 03:32:34;;;;;;;4.67;2.47;;;;;;;;;;778588;179;921216;-61
2023/01/13 03:35:01;;;;;;;11.17;3.67;;;;;;;;;;774757;181;920819;-62
2023/01/13 03:37:26;;;;;;;4.77;2.40;;;;;;;;;;771750;180;917833;-67
2023/01/13 03:39:52;;;;;;;5.83;2.70;;;;;;;;;;778629;179;816561;-61
2023/01/13 03:42:19;;;;;;;6.20;3.12;;;;;;;;;;773718;180;817128;-68
2023/01/13 03:44:47;;;;;;;5.18;2.28;;;;;;;;;;766325;182;919635;-60
2023/01/13 03:47:16;;;;;;;4.83;2.53;;;;;;;;;;768546;182;817763;-67
2023/01/13 03:49:44;;;;;;;8.40;3.20;;;;;;;;;;770947;181;919536;-67
2023/01/13 03:52:10;;;;;;;4.33;2.40;;;;;;;;;;767782;181;918867;-68
2023/01/13 03:54:36;;;;;;;6.30;2.73;;;;;;;;;;771624;180;915181;-68
2023/01/13 03:57:01;;;;;;;5.20;2.70;;;;;;;;;;776468;180;919586;-67
2023/01/13 03:59:27;;;;;;;6.07;3.03;;;;;;;;;;773183;179;919339;-67
2023/01/13 04:01:58;;;;;;;4.45;2.85;;;;;;;;;;769120;179;919049;-61
2023/01/13 04:04:25;;;;;;;3.70;2.30;;;;;;;;;;757251;186;917550;-61
2023/01/13 04:06:52;;;;;;;6.50;2.87;;;;;;;;;;767525;182;848358;-67
2023/01/13 04:09:20;;;;;;;7.35;2.80;;;;;;;;;;756881;182;919668;-68
2023/01/13 04:11:46;;;;;;;5.97;3.03;;;;;;;;;;772590;180;918925;-68
2023/01/13 04:14:12;;;;;;;4.70;3.17;;;;;;;;;;776718;179;918846;-61
2023/01/13 04:16:37;;;;;;;6.57;2.80;;;;;;;;;;772839;181;914504;-69
2023/01/13 04:19:03;;;;;;;5.90;3.10;;;;;;;;;;767898;180;927101;-60
2023/01/13 04:21:29;;;;;;;4.18;2.30;;;;;;;;;;765295;182;919143;-67
2023/01/13 04:23:55;;;;;;;6.13;2.97;;;;;;;;;;773518;183;919714;-60
2023/01/13 04:26:22;;;;;;;3.27;2.03;;;;;;;;;;769261;182;921237;-60
2023/01/13 04:28:47;;;;;;;5.70;3.00;;;;;;;;;;772986;181;919309;-68
2023/01/13 04:31:13;;;;;;;3.87;2.43;;;;;;;;;;778153;182;919753;-67
2023/01/13 04:33:38;;;;;;;5.57;2.73;;;;;;;;;;773605;181;908518;-67
2023/01/13 04:36:05;;;;;;;5.37;2.87;;;;;;;;;;768674;180;919573;-67
2023/01/13 04:38:30;;;;;;;3.87;2.30;;;;;;;;;;774867;180;918990;-67
2023/01/13 04:40:56;;;;;;;5.53;2.60;;;;;;;;;;771378;180;919668;-67
2023/01/13 04:43:22;;;;;;;4.57;2.73;;;;;;;;;;771695;181;919262;-61
2023/01/13 04:45:48;;;;;;;4.13;2.40;;;;;;;;;;771491;182;907353;-67
2023/01/13 04:48:14;;;;;;;4.07;2.73;;;;;;;;;;777151;179;913140;-61
2023/01/13 04:50:40;;;;;;;7.20;3.43;;;;;;;;;;766270;181;920454;-68
2023/01/13 04:53:05;;;;;;;6.63;2.63;;;;;;;;;;768754;181;918960;-60
2023/01/13 04:55:31;;;;;;;4.40;3.00;;;;;;;;;;775798;181;917702;-68
2023/01/13 04:58:01;;;;;;;4.87;2.60;;;;;;;;;;765774;182;919349;-68
2023/01/13 05:00:27;;;;;;;4.00;2.50;;;;;;;;;;766670;181;926111;-60
2023/01/13 05:02:53;;;;;;;4.10;3.00;;;;;;;;;;772359;182;919174;-68
2023/01/13 05:05:19;;;;;;;7.13;3.20;;;;;;;;;;768737;183;918501;-61
2023/01/13 05:07:45;;;;;;;4.57;2.83;;;;;;;;;;760688;182;919598;-68
2023/01/13 05:10:10;;;;;;;5.53;3.87;;;;;;;;;;754404;186;919522;-68
2023/01/13 05:17:41;;;;;;;5.82;3.28;;;;;;;;;;769287;181;883100;-65
2023/01/13 05:20:07;;;;;;;6.20;3.40;;;;;;;;;;770433;181;815471;-61
2023/01/13 05:27:36;;;;;;;7.60;2.57;;;;;;;;;;769001;179;920430;-68
2023/01/13 05:30:02;;;;;;;4.40;3.17;;;;;;;;;;763978;182;997558;-68
2023/01/13 05:32:28;;;;;;;6.40;3.60;;;;;;;;;;770575;181;819700;-68
2023/01/13 05:34:54;;;;;;;4.33;2.53;;;;;;;;;;767499;181;989731;-64
2023/01/13 05:37:20;;;;;;;4.73;3.20;;;;;;;;;;771046;181;816894;-61
2023/01/13 05:44:49;;;;;;;8.17;3.10;;;;;;;;;;765402;179;892937;-61
2023/01/13 05:47:15;;;;;;;5.78;3.00;;;;;;;;;;773054;180;916921;-68
2023/01/13 05:49:40;;;;;;;4.70;3.53;;;;;;;;;;775666;181;704196;-61
2023/01/13 05:52:06;;;;;;;6.70;3.43;;;;;;;;;;771017;180;912769;-68
2023/01/13 05:54:32;;;;;;;11.27;4.37;;;;;;;;;;777280;179;886916;-63
2023/01/13 05:56:58;;;;;;;8.03;3.90;;;;;;;;;;773890;181;628901;-62
2023/01/13 05:59:24;;;;;;;18.03;4.20;;;;;;;;;;773880;181;916849;-61
2023/01/13 06:01:50;;;;;;;4.72;2.70;;;;;;;;;;763752;181;818255;-67
2023/01/13 06:04:16;;;;;;;4.80;3.40;;;;;;;;;;772283;180;918073;-68
2023/01/13 06:06:43;;;;;;;4.67;3.10;;;;;;;;;;781019;180;817610;-59
2023/01/13 06:09:07;;;;;;;5.40;3.27;;;;;;;;;;768508;180;914712;-67
2023/01/13 06:11:33;;;;;;;5.90;4.03;;;;;;;;;;766486;182;916008;-61
2023/01/13 06:13:59;;;;;;;4.83;3.60;;;;;;;;;;775637;182;921159;-61
2023/01/13 06:16:25;;;;;;;6.87;3.67;;;;;;;;;;769784;182;920048;-61
2023/01/13 06:18:51;;;;;;;5.10;2.90;;;;;;;;;;764219;182;913323;-68
2023/01/13 06:21:16;;;;;;;10.02;3.90;;;;;;;;;;779734;180;774144;-61
2023/01/13 06:23:42;;;;;;;7.03;3.40;;;;;;;;;;758055;182;919517;-61
2023/01/13 06:26:09;;;;;;;6.30;2.70;;;;;;;;;;755060;186;913394;-68
2023/01/13 06:28:35;;;;;;;6.20;3.13;;;;;;;;;;771785;180;873936;-68
2023/01/13 06:31:01;;;;;;;5.87;3.20;;;;;;;;;;771077;182;918903;-61
2023/01/13 06:33:27;;;;;;;7.50;3.50;;;;;;;;;;765653;181;919488;-61
2023/01/13 06:35:52;;;;;;;10.07;4.10;;;;;;;;;;773062;179;918421;-68
2023/01/13 06:38:18;;;;;;;5.17;3.00;;;;;;;;;;777831;181;817470;-61
2023/01/13 06:40:44;;;;;;;4.07;2.30;;;;;;;;;;768125;181;819846;-61
2023/01/13 06:43:14;;;;;;;5.15;3.67;;;;;;;;;;770664;181;916660;-61
2023/01/13 06:45:40;;;;;;;8.00;3.57;;;;;;;;;;770798;181;919562;-61
2023/01/13 06:48:05;;;;;;;5.93;3.80;;;;;;;;;;766563;181;805825;-69
2023/01/13 06:50:31;;;;;;;7.10;4.20;;;;;;;;;;770043;182;925471;-61
2023/01/13 06:52:57;;;;;;;5.17;2.90;;;;;;;;;;765706;182;920507;-62
2023/01/13 06:55:24;;;;;;;4.90;3.33;;;;;;;;;;770436;182;835546;-69
2023/01/13 06:57:50;;;;;;;5.93;3.87;;;;;;;;;;755902;182;920079;-61
2023/01/13 07:00:16;;;;;;;5.20;3.90;;;;;;;;;;755184;184;920003;-69
2023/01/13 07:02:41;;;;;;;4.73;2.97;;;;;;;;;;771051;180;919483;-69
2023/01/13 07:05:07;;;;;;;8.63;4.23;;;;;;;;;;773166;181;921221;-61
2023/01/13 07:07:33;;;;;;;5.00;3.50;;;;;;;;;;771928;181;919119;-61
2023/01/13 07:10:00;;;;;;;11.45;3.85;;;;;;;;;;773951;181;919117;-61
2023/01/13 07:12:26;;;;;;;5.00;2.60;;;;;;;;;;777418;179;919476;-68
2023/01/13 07:17:24;;;;;;;4.70;3.47;;;;;;;;;;773364;180;918806;-69
2023/01/13 07:19:49;;;;;;;4.97;3.10;;;;;;;;;;771832;182;819634;-61
2023/01/13 07:22:15;;;;;;;5.10;2.80;;;;;;;;;;769243;181;910608;-61
2023/01/13 07:24:41;;;;;;;5.27;3.33;;;;;;;;;;767697;181;919610;-62
2023/01/13 07:27:06;;;;;;;5.23;3.73;;;;;;;;;;770144;181;918111;-65
2023/01/13 07:29:32;;;;;;;4.73;2.67;;;;;;;;;;770114;181;1015318;-61
2023/01/13 07:31:58;;;;;;;6.77;3.57;;;;;;;;;;774852;180;917990;-69
2023/01/13 07:34:24;;;;;;;5.00;3.07;;;;;;;;;;768414;181;918368;-69
2023/01/13 07:36:50;;;;;;;6.90;3.13;;;;;;;;;;773512;181;816477;-70
2023/01/13 07:39:16;;;;;;;5.23;3.37;;;;;;;;;;768364;182;919368;-61
2023/01/13 07:44:13;;;;;;;6.30;4.20;;;;;;;;;;776388;180;918469;-70
2023/01/13 07:46:39;;;;;;;5.67;3.53;;;;;;;;;;771242;180;917077;-62
2023/01/13 07:49:05;;;;;;;7.30;3.90;;;;;;;;;;767280;181;961511;-70
2023/01/13 07:51:31;;;;;;;4.77;3.40;;;;;;;;;;765814;181;873117;-62
2023/01/13 07:53:57;;;;;;;6.27;3.07;;;;;;;;;;774163;181;899944;-61
2023/01/13 07:56:23;;;;;;;5.80;2.93;;;;;;;;;;765153;181;1051984;-62
2023/01/13 07:58:51;;;;;;;7.10;4.10;;;;;;;;;;765651;180;817004;-70
2023/01/13 08:01:16;;;;;;;6.12;3.30;;;;;;;;;;773593;181;918683;-69
2023/01/13 08:03:41;;;;;;;5.50;3.07;;;;;;;;;;771239;181;919061;-69
2023/01/13 08:06:07;;;;;;;4.77;3.60;;;;;;;;;;763614;182;918895;-61
2023/01/13 08:08:33;;;;;;;9.77;3.40;;;;;;;;;;765273;182;915101;-61
2023/01/13 08:10:59;;;;;;;5.27;3.30;;;;;;;;;;768223;182;1000734;-68
2023/01/13 08:13:25;;;;;;;5.00;3.10;;;;;;;;;;767191;180;905863;-61
2023/01/13 08:15:51;;;;;;;8.80;3.33;;;;;;;;;;775573;180;922590;-68
2023/01/13 08:18:18;;;;;;;6.30;3.03;;;;;;;;;;776475;181;917832;-61
2023/01/13 08:20:42;;;;;;;3.33;2.50;;;;;;;;;;773361;181;918151;-68
2023/01/13 08:23:08;;;;;;;6.20;3.37;;;;;;;;;;760448;179;920685;-61
2023/01/13 08:25:34;;;;;;;4.37;2.20;;;;;;;;;;778001;180;919490;-60
2023/01/13 08:28:00;;;;;;;4.80;3.00;;;;;;;;;;773610;180;921027;-61
2023/01/13 08:30:26;;;;;;;5.17;2.60;;;;;;;;;;768521;181;921501;-68
2023/01/13 08:32:52;;;;;;;6.43;3.93;;;;;;;;;;773592;181;941122;-61
2023/01/13 08:35:17;;;;;;;8.13;3.80;;;;;;;;;;765667;180;918470;-68
2023/01/13 08:37:43;;;;;;;6.40;3.87;;;;;;;;;;763486;182;916723;-69
2023/01/13 08:40:10;;;;;;;4.87;2.70;;;;;;;;;;772119;181;922993;-61
2023/01/13 08:42:35;;;;;;;5.50;3.40;;;;;;;;;;779159;180;918918;-60
2023/01/13 08:45:01;;;;;;;8.77;3.70;;;;;;;;;;761004;181;925857;-70
2023/01/13 08:47:27;;;;;;;6.00;3.67;;;;;;;;;;761919;179;918559;-61
2023/01/13 08:49:53;;;;;;;6.87;4.47;;;;;;;;;;775821;181;923213;-68
2023/01/13 08:52:19;;;;;;;9.25;3.42;;;;;;;;;;770991;181;924096;-68
2023/01/13 08:54:46;;;;;;;7.20;4.10;;;;;;;;;;763793;180;915791;-68
2023/01/13 08:57:12;;;;;;;7.17;4.83;;;;;;;;;;770764;182;919628;-68
2023/01/13 08:59:37;;;;;;;9.43;3.80;;;;;;;;;;768934;181;823069;-61
2023/01/13 09:02:03;;;;;;;6.53;4.20;;;;;;;;;;772318;181;918168;-61
2023/01/13 09:04:29;;;;;;;6.67;3.83;;;;;;;;;;768741;181;844482;-62
2023/01/13 09:06:55;;;;;;;5.20;3.87;;;;;;;;;;769052;182;817810;-61
2023/01/13 09:09:21;;;;;;;12.20;4.30;;;;;;;;;;770160;180;815954;-68
2023/01/13 09:14:18;;;;;;;6.60;3.87;;;;;;;;;;767386;181;1019117;-61
2023/01/13 09:16:44;;;;;;;8.73;4.50;;;;;;;;;;767459;181;916839;-68
2023/01/13 09:19:11;;;;;;;7.40;4.23;;;;;;;;;;771071;181;789302;-61
2023/01/13 09:21:37;;;;;;;7.12;3.90;;;;;;;;;;776449;182;919154;-62
2023/01/13 09:24:03;;;;;;;6.03;4.43;;;;;;;;;;774848;179;919027;-68
2023/01/13 09:26:29;;;;;;;6.60;3.33;;;;;;;;;;773342;181;627870;-61
2023/01/13 09:28:54;;;;;;;10.57;4.97;;;;;;;;;;774312;180;638437;-68
2023/01/13 09:31:20;;;;;;;6.53;4.60;;;;;;;;;;774819;181;634714;-68
2023/01/13 09:36:18;;;;;;;5.90;4.13;;;;;;;;;;768705;181;920751;-61
2023/01/13 09:38:44;;;;;;;5.87;4.13;;;;;;;;;;777722;180;918139;-61
2023/01/13 09:43:52;;;;;;;10.40;4.13;;;;;;;;;;766476;180;921742;-61
2023/01/13 09:46:42;;;;;;;7.83;5.00;;;;;;;;;;769904;181;816890;-61
2023/01/13 09:48:50;;;;;;;7.57;4.35;;;;;;;;;;768121;181;888533;-68
2023/01/13 09:51:08;;;;;;;6.40;3.83;;;;;;;;;;766544;182;918447;-61
2023/01/13 09:53:33;;;;;;;6.43;3.90;;;;;;;;;;765536;181;918701;-69
2023/01/13 09:55:59;;;;;;;6.63;3.00;;;;;;;;;;770422;181;814975;-61
2023/01/13 09:58:24;;;;;;;6.53;3.37;;;;;;;;;;773513;182;818223;-61
2023/01/13 10:01:00;;;;;;;5.33;3.10;;;;;;;;;;769771;180;919341;-68
2023/01/13 10:03:26;;;;;;;8.27;3.87;;;;;;;;;;771023;181;911241;-69
2023/01/13 10:05:55;;;;;;;5.80;3.33;;;;;;;;;;768000;182;924592;-68
2023/01/13 10:08:21;;;;;;;6.07;3.70;;;;;;;;;;775045;182;862621;-68
2023/01/13 10:10:47;;;;;;;5.37;3.72;;;;;;;;;;770254;181;935467;-62
2023/01/13 10:13:15;;;;;;;5.83;4.07;;;;;;;;;;769171;180;919321;-61
2023/01/13 10:15:41;;;;;;;4.63;2.83;;;;;;;;;;766596;182;919096;-61
2023/01/13 10:18:09;;;;;;;6.33;2.93;;;;;;;;;;765652;180;918722;-68
2023/01/13 10:20:35;;;;;;;6.27;3.80;;;;;;;;;;770495;180;918722;-69
2023/01/13 10:23:06;;;;;;;6.40;4.10;;;;;;;;;;768185;182;919809;-62
2023/01/13 10:25:35;;;;;;;5.70;3.40;;;;;;;;;;774243;181;837203;-69
2023/01/13 10:28:03;;;;;;;5.40;3.67;;;;;;;;;;769779;181;816158;-62
2023/01/13 10:30:30;;;;;;;5.87;4.23;;;;;;;;;;770018;181;919705;-61
2023/01/13 10:32:54;;;;;;;9.20;3.90;;;;;;;;;;770545;181;919404;-62
2023/01/13 10:35:36;;;;;;;5.40;3.87;;;;;;;;;;775454;181;921399;-62
2023/01/13 10:38:02;;;;;;;12.50;4.50;;;;;;;;;;772119;181;816244;-61
2023/01/13 10:40:27;;;;;;;6.23;4.00;;;;;;;;;;765072;181;816615;-62
2023/01/13 10:42:53;;;;;;;6.50;4.70;;;;;;;;;;765920;182;918478;-62
2023/01/13 10:45:19;;;;;;;6.60;4.27;;;;;;;;;;772961;181;917131;-69
2023/01/13 10:47:45;;;;;;;5.13;3.20;;;;;;;;;;770848;181;788989;-69
2023/01/13 10:50:21;;;;;;;4.80;3.17;;;;;;;;;;772015;180;919245;-62
2023/01/13 10:52:53;;;;;;;5.07;3.20;;;;;;;;;;764853;181;915467;-61
2023/01/13 10:55:22;;;;;;;4.20;2.90;;;;;;;;;;771916;181;818382;-68
2023/01/13 10:57:48;;;;;;;6.87;4.27;;;;;;;;;;774498;181;818353;-68
2023/01/13 11:00:20;;;;;;;4.03;3.00;;;;;;;;;;769506;180;1022010;-67
2023/01/13 11:02:46;;;;;;;6.07;3.80;;;;;;;;;;766975;180;917594;-60
2023/01/13 11:05:16;;;;;;;7.10;3.60;;;;;;;;;;772702;182;919121;-68
2023/01/13 11:07:45;;;;;;;5.97;4.00;;;;;;;;;;769028;181;920786;-68
2023/01/13 11:10:16;;;;;;;7.27;3.93;;;;;;;;;;775590;179;818842;-60
2023/01/13 11:12:43;;;;;;;6.68;3.20;;;;;;;;;;768033;181;917763;-60
2023/01/13 11:15:09;;;;;;;4.90;3.20;;;;;;;;;;777859;180;824940;-67
2023/01/13 11:17:37;;;;;;;5.50;2.97;;;;;;;;;;768518;180;920709;-68
2023/01/13 11:20:04;;;;;;;5.53;2.70;;;;;;;;;;767015;179;901399;-60
2023/01/13 11:22:35;;;;;;;4.00;3.00;;;;;;;;;;768169;180;920311;-68
2023/01/13 11:25:02;;;;;;;6.53;3.10;;;;;;;;;;772634;181;919274;-60
2023/01/13 11:27:34;;;;;;;5.70;3.37;;;;;;;;;;765303;181;915523;-60
2023/01/13 11:30:08;;;;;;;6.30;3.50;;;;;;;;;;767569;181;913949;-62
2023/01/13 11:32:31;;;;;;;5.03;2.97;;;;;;;;;;762609;179;916828;-68
2023/01/13 11:34:57;;;;;;;6.10;3.73;;;;;;;;;;772913;181;921041;-60
2023/01/13 11:37:24;;;;;;;4.50;3.03;;;;;;;;;;770669;181;919793;-60
2023/01/13 11:39:55;;;;;;;6.60;3.60;;;;;;;;;;770517;181;946155;-67
2023/01/13 11:42:25;;;;;;;7.47;4.43;;;;;;;;;;763116;181;816490;-61
2023/01/13 11:44:53;;;;;;;6.00;3.93;;;;;;;;;;775249;181;922452;-61
2023/01/13 11:47:19;;;;;;;7.40;3.40;;;;;;;;;;770403;180;918060;-68
2023/01/13 11:49:47;;;;;;;8.50;3.80;;;;;;;;;;771949;179;918677;-69
2023/01/13 11:52:10;;;;;;;7.57;3.73;;;;;;;;;;772808;181;914380;-67
2023/01/13 11:54:36;;;;;;;6.13;3.40;;;;;;;;;;771984;181;825500;-61
2023/01/13 11:57:17;;;;;;;7.20;3.33;;;;;;;;;;769977;179;917667;-61
2023/01/13 12:00:02;;;;;;;8.13;3.50;;;;;;;;;;772860;179;817959;-61
2023/01/13 12:02:34;;;;;;;7.43;4.23;;;;;;;;;;770664;178;813006;-62
2023/01/13 12:05:06;;;;;;;6.30;3.63;;;;;;;;;;773547;180;918721;-61
2023/01/13 12:07:32;;;;;;;6.77;3.70;;;;;;;;;;768091;179;922387;-62
2023/01/13 12:10:01;;;;;;;7.13;3.00;;;;;;;;;;771733;181;913783;-62
2023/01/13 12:12:31;;;;;;;7.17;3.30;;;;;;;;;;769932;179;948105;-62
2023/01/13 12:15:09;;;;;;;6.77;3.30;;;;;;;;;;772385;179;1027040;-62
2023/01/13 12:17:41;;;;;;;5.62;2.83;;;;;;;;;;760218;182;891705;-61
2023/01/13 12:20:08;;;;;;;8.63;3.30;;;;;;;;;;763927;180;1027006;-68
2023/01/13 12:22:33;;;;;;;4.43;2.83;;;;;;;;;;761506;182;713105;-69
2023/01/13 12:24:59;;;;;;;5.00;3.00;;;;;;;;;;770168;180;877456;-70
2023/01/13 12:27:25;;;;;;;6.93;2.70;;;;;;;;;;771641;181;919636;-62
2023/01/13 12:29:51;;;;;;;5.43;2.73;;;;;;;;;;771157;181;920603;-69
2023/01/13 12:32:19;;;;;;;5.47;2.30;;;;;;;;;;768949;180;817626;-61
2023/01/13 12:34:44;;;;;;;13.37;3.20;;;;;;;;;;762979;181;1021943;-62
2023/01/13 12:37:12;;;;;;;4.43;2.93;;;;;;;;;;770862;180;917616;-69
2023/01/13 12:39:39;;;;;;;6.27;3.23;;;;;;;;;;769575;180;919391;-70
2023/01/13 12:45:06;;;;;;;7.07;2.90;;;;;;;;;;769985;181;894798;-69
2023/01/13 12:47:32;;;;;;;4.47;2.90;;;;;;;;;;772563;181;925417;-70
2023/01/13 12:50:04;;;;;;;5.97;2.77;;;;;;;;;;771996;180;915731;-69
2023/01/13 12:52:33;;;;;;;5.50;3.23;;;;;;;;;;774295;181;919136;-70
2023/01/13 12:54:58;;;;;;;4.40;3.27;;;;;;;;;;762658;181;919387;-69
2023/01/13 12:57:24;;;;;;;5.17;2.87;;;;;;;;;;770176;181;919506;-71
2023/01/13 13:00:05;;;;;;;4.63;3.20;;;;;;;;;;767003;180;816601;-70
2023/01/13 13:02:46;;;;;;;5.50;2.87;;;;;;;;;;771526;180;827089;-71
2023/01/13 13:05:28;;;;;;;5.13;3.27;;;;;;;;;;769525;181;885632;-70
2023/01/13 13:07:59;;;;;;;5.00;3.00;;;;;;;;;;760303;181;926475;-70
2023/01/13 13:10:29;;;;;;;5.03;3.07;;;;;;;;;;780069;180;814758;-71
2023/01/13 13:15:27;;;;;;;5.60;3.20;;;;;;;;;;767145;180;920317;-71
2023/01/13 13:18:13;;;;;;;6.27;2.90;;;;;;;;;;767810;181;928034;-71
2023/01/13 13:20:45;;;;;;;5.12;3.50;;;;;;;;;;767074;180;919007;-71
2023/01/13 13:23:17;;;;;;;4.60;2.83;;;;;;;;;;775658;181;919427;-71
2023/01/13 13:25:42;;;;;;;4.83;3.10;;;;;;;;;;774228;182;917329;-71
2023/01/13 13:28:08;;;;;;;7.27;3.90;;;;;;;;;;763599;181;919137;-72
2023/01/13 13:30:36;;;;;;;6.70;3.43;;;;;;;;;;763511;182;919131;-63
2023/01/13 13:33:23;;;;;;;4.90;2.63;;;;;;;;;;759967;186;918311;-69
2023/01/13 13:35:54;;;;;;;7.23;3.20;;;;;;;;;;780033;179;869522;-71
2023/01/13 13:48:30;;;;;;;4.70;3.43;;;;;;;;;;763969;181;916742;-68
2023/01/13 13:50:59;;;;;;;5.53;2.90;;;;;;;;;;761450;183;1021164;-62
2023/01/13 13:53:21;;;;;;;6.87;3.93;;;;;;;;;;772313;181;816656;-69
2023/01/13 13:55:52;;;;;;;6.95;4.45;;;;;;;;;;770672;181;826659;-69
2023/01/13 13:58:18;;;;;;;6.27;3.93;;;;;;;;;;776965;179;884120;-70
2023/01/13 14:00:44;;;;;;;7.75;4.28;;;;;;;;;;770730;182;915872;-62
2023/01/13 14:03:16;;;;;;;7.00;4.40;;;;;;;;;;767152;181;916349;-67
2023/01/13 14:05:42;;;;;;;7.55;4.87;;;;;;;;;;762693;181;917917;-67
2023/01/13 14:08:11;;;;;;;9.23;5.07;;;;;;;;;;776896;180;889474;-62
2023/01/13 14:10:37;;;;;;;7.50;4.83;;;;;;;;;;770771;179;920580;-65
2023/01/13 14:13:09;;;;;;;11.80;8.20;;;;;;;;;;767116;179;818173;-62
2023/01/13 14:15:35;;;;;;;7.37;4.90;;;;;;;;;;772003;181;917899;-63
2023/01/13 14:18:01;;;;;;;6.63;4.60;;;;;;;;;;775813;181;918414;-68
2023/01/13 14:20:27;;;;;;;7.80;5.10;;;;;;;;;;769011;180;909115;-63
2023/01/13 14:22:52;;;;;;;17.87;4.97;;;;;;;;;;764078;180;913163;-70
2023/01/13 14:25:24;;;;;;;9.00;5.67;;;;;;;;;;773404;182;917716;-63
2023/01/13 14:27:50;;;;;;;8.63;5.20;;;;;;;;;;771235;181;816868;-68
2023/01/13 14:30:16;;;;;;;6.37;5.30;;;;;;;;;;762542;180;817391;-69
2023/01/13 14:32:42;;;;;;;8.07;4.80;;;;;;;;;;775604;180;883632;-68
2023/01/13 14:35:09;;;;;;;8.30;4.93;;;;;;;;;;776634;181;817061;-68
2023/01/13 14:37:34;;;;;;;10.43;4.77;;;;;;;;;;755966;182;917434;-69
2023/01/13 14:40:00;;;;;;;8.40;5.00;;;;;;;;;;770752;181;898009;-63
2023/01/13 14:42:28;;;;;;;5.57;4.37;;;;;;;;;;774404;181;908910;-64
2023/01/13 14:44:52;;;;;;;7.40;4.90;;;;;;;;;;767344;181;913002;-68
2023/01/13 14:47:32;;;;;;;8.50;5.20;;;;;;;;;;758505;182;918788;-68
2023/01/13 14:50:01;;;;;;;7.90;4.47;;;;;;;;;;756539;182;919627;-63
2023/01/13 14:52:24;;;;;;;5.50;4.07;;;;;;;;;;772381;180;918572;-63
2023/01/13 14:54:50;;;;;;;9.87;5.17;;;;;;;;;;771755;180;919279;-69
2023/01/13 14:57:23;;;;;;;5.90;3.90;;;;;;;;;;771199;180;918160;-69
2023/01/13 14:59:50;;;;;;;7.00;4.87;;;;;;;;;;767269;181;854259;-68
2023/01/13 15:02:19;;;;;;;12.83;5.10;;;;;;;;;;769636;182;911959;-68
2023/01/13 15:04:45;;;;;;;7.00;5.10;;;;;;;;;;771352;182;814950;-69
2023/01/13 15:07:11;;;;;;;5.93;4.63;;;;;;;;;;770565;181;921658;-68
2023/01/13 15:09:38;;;;;;;8.33;4.93;;;;;;;;;;760910;182;888207;-63
2023/01/13 15:12:09;;;;;;;9.57;6.33;;;;;;;;;;763620;182;916807;-63
2023/01/13 15:14:35;;;;;;;7.83;4.70;;;;;;;;;;762821;181;942105;-63
2023/01/13 15:17:02;;;;;;;8.70;4.27;;;;;;;;;;766758;180;916564;-68
2023/01/13 15:19:27;;;;;;;7.13;4.60;;;;;;;;;;778536;180;814185;-63
2023/01/13 15:21:53;;;;;;;7.43;4.55;;;;;;;;;;762279;180;916740;-62